<?xml version="1.0" encoding="UTF-8" standalone="no" ?>
<gpx xmlns="http://www.topografix.com/GPX/1/1" xmlns:xsi="http://www.w3.org/2001/XMLSchema-instance" xsi:schemaLocation="http://www.topografix.com/GPX/1/1 http://www.topografix.com/GPX/1/1/gpx.xsd" version="1.1" creator="VisuGPX - https://www.visugpx.com">
  <metadata>
    <name>11Homps Oupia no2</name>
  </metadata>
  <trk>
    <name><![CDATA[11Homps Oupia41kmd1050m]]></name>
    <extensions>
      <line xmlns="http://www.topografix.com/GPX/gpx_style/0/2">
        <color>0000FF</color>
        <width>4</width>
      </line>
    </extensions>
    <trkseg>
      <trkpt lat="43.28509" lon="2.76551">
        <ele>96.2</ele>
        <time>2022-05-21T09:52:43Z</time>
      </trkpt>
      <trkpt lat="43.28432" lon="2.76566">
        <ele>98</ele>
        <time>2022-05-21T09:53:05Z</time>
      </trkpt>
      <trkpt lat="43.28367" lon="2.7657">
        <ele>103</ele>
        <time>2022-05-21T09:53:30Z</time>
      </trkpt>
      <trkpt lat="43.28336" lon="2.76573">
        <ele>105.2</ele>
        <time>2022-05-21T09:53:44Z</time>
      </trkpt>
      <trkpt lat="43.28302" lon="2.76588">
        <ele>106.9</ele>
        <time>2022-05-21T09:54:02Z</time>
      </trkpt>
      <trkpt lat="43.28311" lon="2.76605">
        <ele>108.7</ele>
        <time>2022-05-21T09:54:09Z</time>
      </trkpt>
      <trkpt lat="43.28315" lon="2.76629">
        <ele>112.4</ele>
        <time>2022-05-21T09:54:23Z</time>
      </trkpt>
      <trkpt lat="43.28318" lon="2.76667">
        <ele>115.4</ele>
        <time>2022-05-21T09:54:38Z</time>
      </trkpt>
      <trkpt lat="43.28316" lon="2.76713">
        <ele>117.5</ele>
        <time>2022-05-21T09:55:03Z</time>
      </trkpt>
      <trkpt lat="43.28307" lon="2.76729">
        <ele>118.7</ele>
        <time>2022-05-21T09:55:15Z</time>
      </trkpt>
      <trkpt lat="43.28296" lon="2.7674">
        <ele>120.4</ele>
        <time>2022-05-21T09:55:24Z</time>
      </trkpt>
      <trkpt lat="43.28285" lon="2.76746">
        <ele>122.4</ele>
        <time>2022-05-21T09:55:33Z</time>
      </trkpt>
      <trkpt lat="43.2826" lon="2.76754">
        <ele>126.6</ele>
        <time>2022-05-21T09:55:50Z</time>
      </trkpt>
      <trkpt lat="43.28242" lon="2.76758">
        <ele>128</ele>
        <time>2022-05-21T09:56:04Z</time>
      </trkpt>
      <trkpt lat="43.28217" lon="2.76766">
        <ele>128.7</ele>
        <time>2022-05-21T09:56:20Z</time>
      </trkpt>
      <trkpt lat="43.28195" lon="2.76771">
        <ele>129.1</ele>
        <time>2022-05-21T09:56:34Z</time>
      </trkpt>
      <trkpt lat="43.28164" lon="2.76785">
        <ele>133.1</ele>
        <time>2022-05-21T09:56:52Z</time>
      </trkpt>
      <trkpt lat="43.28143" lon="2.76809">
        <ele>135.8</ele>
        <time>2022-05-21T09:57:10Z</time>
      </trkpt>
      <trkpt lat="43.2813" lon="2.76829">
        <ele>136.8</ele>
        <time>2022-05-21T09:57:27Z</time>
      </trkpt>
      <trkpt lat="43.28112" lon="2.7687">
        <ele>139.4</ele>
        <time>2022-05-21T09:57:49Z</time>
      </trkpt>
      <trkpt lat="43.28096" lon="2.76892">
        <ele>141.8</ele>
        <time>2022-05-21T09:58:02Z</time>
      </trkpt>
      <trkpt lat="43.2807" lon="2.76935">
        <ele>144.6</ele>
        <time>2022-05-21T09:58:27Z</time>
      </trkpt>
      <trkpt lat="43.28068" lon="2.76975">
        <ele>146.3</ele>
        <time>2022-05-21T09:58:42Z</time>
      </trkpt>
      <trkpt lat="43.28066" lon="2.77005">
        <ele>146.9</ele>
        <time>2022-05-21T09:59:00Z</time>
      </trkpt>
      <trkpt lat="43.28052" lon="2.77042">
        <ele>148.8</ele>
        <time>2022-05-21T09:59:19Z</time>
      </trkpt>
      <trkpt lat="43.28051" lon="2.77063">
        <ele>150.5</ele>
        <time>2022-05-21T09:59:31Z</time>
      </trkpt>
      <trkpt lat="43.28069" lon="2.77047">
        <ele>152.6</ele>
        <time>2022-05-21T09:59:44Z</time>
      </trkpt>
      <trkpt lat="43.28099" lon="2.77016">
        <ele>153.5</ele>
        <time>2022-05-21T10:00:06Z</time>
      </trkpt>
      <trkpt lat="43.28141" lon="2.76984">
        <ele>159.2</ele>
        <time>2022-05-21T10:00:42Z</time>
      </trkpt>
      <trkpt lat="43.28157" lon="2.7698">
        <ele>161.1</ele>
        <time>2022-05-21T10:00:53Z</time>
      </trkpt>
      <trkpt lat="43.28167" lon="2.76977">
        <ele>161.8</ele>
        <time>2022-05-21T10:01:52Z</time>
      </trkpt>
      <trkpt lat="43.28194" lon="2.76976">
        <ele>164.7</ele>
        <time>2022-05-21T10:02:07Z</time>
      </trkpt>
      <trkpt lat="43.28225" lon="2.76977">
        <ele>166.6</ele>
        <time>2022-05-21T10:02:23Z</time>
      </trkpt>
      <trkpt lat="43.2825" lon="2.76987">
        <ele>169.1</ele>
        <time>2022-05-21T10:02:36Z</time>
      </trkpt>
      <trkpt lat="43.28271" lon="2.76997">
        <ele>170.8</ele>
        <time>2022-05-21T10:02:49Z</time>
      </trkpt>
      <trkpt lat="43.28298" lon="2.77017">
        <ele>173.4</ele>
        <time>2022-05-21T10:03:05Z</time>
      </trkpt>
      <trkpt lat="43.28311" lon="2.77043">
        <ele>174</ele>
        <time>2022-05-21T10:03:18Z</time>
      </trkpt>
      <trkpt lat="43.28314" lon="2.77072">
        <ele>176.2</ele>
        <time>2022-05-21T10:03:31Z</time>
      </trkpt>
      <trkpt lat="43.2832" lon="2.77117">
        <ele>179.2</ele>
        <time>2022-05-21T10:03:48Z</time>
      </trkpt>
      <trkpt lat="43.28333" lon="2.77146">
        <ele>182.8</ele>
        <time>2022-05-21T10:04:00Z</time>
      </trkpt>
      <trkpt lat="43.28356" lon="2.77139">
        <ele>184.4</ele>
        <time>2022-05-21T10:04:14Z</time>
      </trkpt>
      <trkpt lat="43.28387" lon="2.77137">
        <ele>186.6</ele>
        <time>2022-05-21T10:04:32Z</time>
      </trkpt>
      <trkpt lat="43.28407" lon="2.77168">
        <ele>189</ele>
        <time>2022-05-21T10:04:49Z</time>
      </trkpt>
      <trkpt lat="43.28421" lon="2.77193">
        <ele>191.6</ele>
        <time>2022-05-21T10:05:02Z</time>
      </trkpt>
      <trkpt lat="43.28451" lon="2.77212">
        <ele>195.3</ele>
        <time>2022-05-21T10:05:21Z</time>
      </trkpt>
      <trkpt lat="43.28493" lon="2.77237">
        <ele>197</ele>
        <time>2022-05-21T10:05:46Z</time>
      </trkpt>
      <trkpt lat="43.28501" lon="2.7727">
        <ele>198.9</ele>
        <time>2022-05-21T10:05:59Z</time>
      </trkpt>
      <trkpt lat="43.28511" lon="2.7733">
        <ele>202.5</ele>
        <time>2022-05-21T10:06:24Z</time>
      </trkpt>
      <trkpt lat="43.2851" lon="2.77359">
        <ele>206.1</ele>
        <time>2022-05-21T10:06:37Z</time>
      </trkpt>
      <trkpt lat="43.28489" lon="2.77349">
        <ele>209.6</ele>
        <time>2022-05-21T10:06:51Z</time>
      </trkpt>
      <trkpt lat="43.28473" lon="2.773">
        <ele>210.3</ele>
        <time>2022-05-21T10:07:12Z</time>
      </trkpt>
      <trkpt lat="43.28448" lon="2.7728">
        <ele>212</ele>
        <time>2022-05-21T10:07:28Z</time>
      </trkpt>
      <trkpt lat="43.28411" lon="2.77293">
        <ele>215.2</ele>
        <time>2022-05-21T10:07:47Z</time>
      </trkpt>
      <trkpt lat="43.28384" lon="2.77308">
        <ele>217.4</ele>
        <time>2022-05-21T10:08:03Z</time>
      </trkpt>
      <trkpt lat="43.28367" lon="2.77324">
        <ele>219.3</ele>
        <time>2022-05-21T10:08:14Z</time>
      </trkpt>
      <trkpt lat="43.28355" lon="2.7736">
        <ele>222.2</ele>
        <time>2022-05-21T10:08:28Z</time>
      </trkpt>
      <trkpt lat="43.28341" lon="2.7741">
        <ele>226.3</ele>
        <time>2022-05-21T10:08:50Z</time>
      </trkpt>
      <trkpt lat="43.28338" lon="2.77451">
        <ele>228.3</ele>
        <time>2022-05-21T10:09:07Z</time>
      </trkpt>
      <trkpt lat="43.2835" lon="2.77489">
        <ele>231.3</ele>
        <time>2022-05-21T10:09:24Z</time>
      </trkpt>
      <trkpt lat="43.2836" lon="2.77539">
        <ele>233.2</ele>
        <time>2022-05-21T10:09:44Z</time>
      </trkpt>
      <trkpt lat="43.2836" lon="2.77588">
        <ele>235.1</ele>
        <time>2022-05-21T10:10:01Z</time>
      </trkpt>
      <trkpt lat="43.28363" lon="2.77623">
        <ele>237.8</ele>
        <time>2022-05-21T10:10:12Z</time>
      </trkpt>
      <trkpt lat="43.2836" lon="2.77708">
        <ele>238.4</ele>
        <time>2022-05-21T10:10:44Z</time>
      </trkpt>
      <trkpt lat="43.28355" lon="2.77727">
        <ele>238.3</ele>
        <time>2022-05-21T10:12:29Z</time>
      </trkpt>
      <trkpt lat="43.28351" lon="2.77754">
        <ele>240</ele>
        <time>2022-05-21T10:12:40Z</time>
      </trkpt>
      <trkpt lat="43.28344" lon="2.77788">
        <ele>241</ele>
        <time>2022-05-21T10:12:57Z</time>
      </trkpt>
      <trkpt lat="43.2834" lon="2.77826">
        <ele>243.4</ele>
        <time>2022-05-21T10:13:14Z</time>
      </trkpt>
      <trkpt lat="43.28335" lon="2.77843">
        <ele>244.3</ele>
        <time>2022-05-21T10:13:23Z</time>
      </trkpt>
      <trkpt lat="43.28333" lon="2.77853">
        <ele>245.1</ele>
        <time>2022-05-21T10:14:08Z</time>
      </trkpt>
      <trkpt lat="43.28343" lon="2.77859">
        <ele>247.2</ele>
        <time>2022-05-21T10:42:16Z</time>
      </trkpt>
      <trkpt lat="43.28328" lon="2.77851">
        <ele>244.6</ele>
        <time>2022-05-21T10:43:17Z</time>
      </trkpt>
      <trkpt lat="43.28297" lon="2.77834">
        <ele>239.5</ele>
        <time>2022-05-21T10:43:25Z</time>
      </trkpt>
      <trkpt lat="43.28269" lon="2.77828">
        <ele>236.7</ele>
        <time>2022-05-21T10:43:31Z</time>
      </trkpt>
      <trkpt lat="43.28242" lon="2.77803">
        <ele>234.4</ele>
        <time>2022-05-21T10:43:38Z</time>
      </trkpt>
      <trkpt lat="43.28231" lon="2.7778">
        <ele>234.1</ele>
        <time>2022-05-21T10:43:44Z</time>
      </trkpt>
      <trkpt lat="43.28214" lon="2.7776">
        <ele>233</ele>
        <time>2022-05-21T10:43:50Z</time>
      </trkpt>
      <trkpt lat="43.28208" lon="2.77732">
        <ele>230.8</ele>
        <time>2022-05-21T10:43:55Z</time>
      </trkpt>
      <trkpt lat="43.28191" lon="2.77717">
        <ele>228.9</ele>
        <time>2022-05-21T10:44:01Z</time>
      </trkpt>
      <trkpt lat="43.28167" lon="2.77698">
        <ele>223.6</ele>
        <time>2022-05-21T10:44:09Z</time>
      </trkpt>
      <trkpt lat="43.28145" lon="2.77707">
        <ele>223.4</ele>
        <time>2022-05-21T10:44:14Z</time>
      </trkpt>
      <trkpt lat="43.28119" lon="2.77696">
        <ele>219.2</ele>
        <time>2022-05-21T10:44:21Z</time>
      </trkpt>
      <trkpt lat="43.28112" lon="2.77675">
        <ele>216.7</ele>
        <time>2022-05-21T10:44:28Z</time>
      </trkpt>
      <trkpt lat="43.28111" lon="2.77677">
        <ele>216.7</ele>
        <time>2022-05-21T10:44:35Z</time>
      </trkpt>
      <trkpt lat="43.28104" lon="2.77666">
        <ele>214.7</ele>
        <time>2022-05-21T10:44:48Z</time>
      </trkpt>
      <trkpt lat="43.28082" lon="2.7765">
        <ele>209.5</ele>
        <time>2022-05-21T10:44:55Z</time>
      </trkpt>
      <trkpt lat="43.28067" lon="2.77651">
        <ele>206.6</ele>
        <time>2022-05-21T10:45:00Z</time>
      </trkpt>
      <trkpt lat="43.28056" lon="2.77649">
        <ele>204.1</ele>
        <time>2022-05-21T10:45:05Z</time>
      </trkpt>
      <trkpt lat="43.28043" lon="2.77629">
        <ele>199.5</ele>
        <time>2022-05-21T10:45:10Z</time>
      </trkpt>
      <trkpt lat="43.28019" lon="2.77617">
        <ele>193.9</ele>
        <time>2022-05-21T10:45:17Z</time>
      </trkpt>
      <trkpt lat="43.28005" lon="2.77609">
        <ele>191.5</ele>
        <time>2022-05-21T10:45:22Z</time>
      </trkpt>
      <trkpt lat="43.27997" lon="2.77612">
        <ele>190</ele>
        <time>2022-05-21T10:45:26Z</time>
      </trkpt>
      <trkpt lat="43.27996" lon="2.7762">
        <ele>189.6</ele>
        <time>2022-05-21T10:45:43Z</time>
      </trkpt>
      <trkpt lat="43.27992" lon="2.77661">
        <ele>189.9</ele>
        <time>2022-05-21T10:45:52Z</time>
      </trkpt>
      <trkpt lat="43.27989" lon="2.77704">
        <ele>192.9</ele>
        <time>2022-05-21T10:46:06Z</time>
      </trkpt>
      <trkpt lat="43.27964" lon="2.77764">
        <ele>190.4</ele>
        <time>2022-05-21T10:46:22Z</time>
      </trkpt>
      <trkpt lat="43.27928" lon="2.77783">
        <ele>181.8</ele>
        <time>2022-05-21T10:46:30Z</time>
      </trkpt>
      <trkpt lat="43.27901" lon="2.77782">
        <ele>178.5</ele>
        <time>2022-05-21T10:46:35Z</time>
      </trkpt>
      <trkpt lat="43.27885" lon="2.77796">
        <ele>173.9</ele>
        <time>2022-05-21T10:46:39Z</time>
      </trkpt>
      <trkpt lat="43.2787" lon="2.77807">
        <ele>169.4</ele>
        <time>2022-05-21T10:46:43Z</time>
      </trkpt>
      <trkpt lat="43.2785" lon="2.77804">
        <ele>165.3</ele>
        <time>2022-05-21T10:46:50Z</time>
      </trkpt>
      <trkpt lat="43.27848" lon="2.7777">
        <ele>167.2</ele>
        <time>2022-05-21T10:47:24Z</time>
      </trkpt>
      <trkpt lat="43.27848" lon="2.77747">
        <ele>169</ele>
        <time>2022-05-21T10:47:33Z</time>
      </trkpt>
      <trkpt lat="43.27822" lon="2.77729">
        <ele>163.4</ele>
        <time>2022-05-21T10:47:41Z</time>
      </trkpt>
      <trkpt lat="43.27811" lon="2.77726">
        <ele>161.4</ele>
        <time>2022-05-21T10:47:47Z</time>
      </trkpt>
      <trkpt lat="43.27784" lon="2.77725">
        <ele>154.4</ele>
        <time>2022-05-21T10:47:57Z</time>
      </trkpt>
      <trkpt lat="43.27772" lon="2.77698">
        <ele>152.8</ele>
        <time>2022-05-21T10:48:03Z</time>
      </trkpt>
      <trkpt lat="43.27757" lon="2.77678">
        <ele>149.2</ele>
        <time>2022-05-21T10:48:09Z</time>
      </trkpt>
      <trkpt lat="43.27746" lon="2.77651">
        <ele>146.5</ele>
        <time>2022-05-21T10:48:15Z</time>
      </trkpt>
      <trkpt lat="43.27737" lon="2.776">
        <ele>142.4</ele>
        <time>2022-05-21T10:48:25Z</time>
      </trkpt>
      <trkpt lat="43.2774" lon="2.77563">
        <ele>139.2</ele>
        <time>2022-05-21T10:48:31Z</time>
      </trkpt>
      <trkpt lat="43.27738" lon="2.7754">
        <ele>136</ele>
        <time>2022-05-21T10:48:35Z</time>
      </trkpt>
      <trkpt lat="43.27731" lon="2.77519">
        <ele>132.8</ele>
        <time>2022-05-21T10:48:40Z</time>
      </trkpt>
      <trkpt lat="43.27737" lon="2.77495">
        <ele>130.7</ele>
        <time>2022-05-21T10:48:45Z</time>
      </trkpt>
      <trkpt lat="43.27734" lon="2.77474">
        <ele>127.8</ele>
        <time>2022-05-21T10:48:50Z</time>
      </trkpt>
      <trkpt lat="43.27723" lon="2.77467">
        <ele>127.1</ele>
        <time>2022-05-21T10:48:54Z</time>
      </trkpt>
      <trkpt lat="43.2771" lon="2.77444">
        <ele>120.8</ele>
        <time>2022-05-21T10:49:00Z</time>
      </trkpt>
      <trkpt lat="43.27702" lon="2.77429">
        <ele>116.7</ele>
        <time>2022-05-21T10:49:06Z</time>
      </trkpt>
      <trkpt lat="43.27703" lon="2.77413">
        <ele>114.8</ele>
        <time>2022-05-21T10:49:11Z</time>
      </trkpt>
      <trkpt lat="43.27695" lon="2.77394">
        <ele>112.4</ele>
        <time>2022-05-21T10:49:17Z</time>
      </trkpt>
      <trkpt lat="43.2769" lon="2.77385">
        <ele>111.7</ele>
        <time>2022-05-21T10:49:36Z</time>
      </trkpt>
      <trkpt lat="43.27711" lon="2.77281">
        <ele>109.4</ele>
        <time>2022-05-21T10:50:00Z</time>
      </trkpt>
      <trkpt lat="43.27739" lon="2.77204">
        <ele>108.5</ele>
        <time>2022-05-21T10:50:11Z</time>
      </trkpt>
      <trkpt lat="43.27722" lon="2.77187">
        <ele>104.7</ele>
        <time>2022-05-21T10:50:19Z</time>
      </trkpt>
      <trkpt lat="43.27639" lon="2.77315">
        <ele>99.7</ele>
        <time>2022-05-21T10:50:38Z</time>
      </trkpt>
      <trkpt lat="43.27585" lon="2.77373">
        <ele>96.2</ele>
        <time>2022-05-21T10:50:50Z</time>
      </trkpt>
      <trkpt lat="43.27539" lon="2.77461">
        <ele>92.7</ele>
        <time>2022-05-21T10:51:00Z</time>
      </trkpt>
      <trkpt lat="43.27522" lon="2.77502">
        <ele>91.1</ele>
        <time>2022-05-21T10:51:06Z</time>
      </trkpt>
      <trkpt lat="43.27502" lon="2.77542">
        <ele>91.1</ele>
        <time>2022-05-21T10:51:18Z</time>
      </trkpt>
      <trkpt lat="43.27494" lon="2.77569">
        <ele>90.3</ele>
        <time>2022-05-21T10:51:38Z</time>
      </trkpt>
      <trkpt lat="43.27473" lon="2.77674">
        <ele>91</ele>
        <time>2022-05-21T10:52:03Z</time>
      </trkpt>
      <trkpt lat="43.27443" lon="2.77835">
        <ele>92</ele>
        <time>2022-05-21T10:52:36Z</time>
      </trkpt>
      <trkpt lat="43.27436" lon="2.7805">
        <ele>92.4</ele>
        <time>2022-05-21T10:53:12Z</time>
      </trkpt>
      <trkpt lat="43.27424" lon="2.78087">
        <ele>92.3</ele>
        <time>2022-05-21T10:53:24Z</time>
      </trkpt>
      <trkpt lat="43.27391" lon="2.78101">
        <ele>92.6</ele>
        <time>2022-05-21T10:53:44Z</time>
      </trkpt>
      <trkpt lat="43.27345" lon="2.78116">
        <ele>95.8</ele>
        <time>2022-05-21T10:54:06Z</time>
      </trkpt>
      <trkpt lat="43.2731" lon="2.78127">
        <ele>98.3</ele>
        <time>2022-05-21T10:54:28Z</time>
      </trkpt>
      <trkpt lat="43.27283" lon="2.78137">
        <ele>100.6</ele>
        <time>2022-05-21T10:54:46Z</time>
      </trkpt>
      <trkpt lat="43.27275" lon="2.78127">
        <ele>100.7</ele>
        <time>2022-05-21T10:55:27Z</time>
      </trkpt>
      <trkpt lat="43.27258" lon="2.78092">
        <ele>100.7</ele>
        <time>2022-05-21T10:55:35Z</time>
      </trkpt>
      <trkpt lat="43.27233" lon="2.78097">
        <ele>103</ele>
        <time>2022-05-21T10:55:54Z</time>
      </trkpt>
      <trkpt lat="43.27211" lon="2.78116">
        <ele>106.6</ele>
        <time>2022-05-21T10:56:14Z</time>
      </trkpt>
      <trkpt lat="43.27201" lon="2.78127">
        <ele>108.7</ele>
        <time>2022-05-21T10:56:22Z</time>
      </trkpt>
      <trkpt lat="43.27194" lon="2.78147">
        <ele>110.6</ele>
        <time>2022-05-21T10:56:34Z</time>
      </trkpt>
      <trkpt lat="43.27182" lon="2.78164">
        <ele>114.1</ele>
        <time>2022-05-21T10:56:51Z</time>
      </trkpt>
      <trkpt lat="43.27182" lon="2.7817">
        <ele>114.4</ele>
        <time>2022-05-21T10:57:22Z</time>
      </trkpt>
      <trkpt lat="43.27188" lon="2.78221">
        <ele>115.6</ele>
        <time>2022-05-21T10:57:37Z</time>
      </trkpt>
      <trkpt lat="43.27204" lon="2.78313">
        <ele>114.9</ele>
        <time>2022-05-21T10:58:00Z</time>
      </trkpt>
      <trkpt lat="43.27235" lon="2.78378">
        <ele>109.7</ele>
        <time>2022-05-21T10:58:13Z</time>
      </trkpt>
      <trkpt lat="43.27236" lon="2.78403">
        <ele>110</ele>
        <time>2022-05-21T10:58:20Z</time>
      </trkpt>
      <trkpt lat="43.27234" lon="2.78454">
        <ele>111.9</ele>
        <time>2022-05-21T10:58:46Z</time>
      </trkpt>
      <trkpt lat="43.27235" lon="2.78488">
        <ele>110.1</ele>
        <time>2022-05-21T10:58:56Z</time>
      </trkpt>
      <trkpt lat="43.27238" lon="2.78512">
        <ele>107.1</ele>
        <time>2022-05-21T10:59:04Z</time>
      </trkpt>
      <trkpt lat="43.27242" lon="2.78535">
        <ele>104</ele>
        <time>2022-05-21T10:59:10Z</time>
      </trkpt>
      <trkpt lat="43.27241" lon="2.78563">
        <ele>103.6</ele>
        <time>2022-05-21T10:59:16Z</time>
      </trkpt>
      <trkpt lat="43.2724" lon="2.786">
        <ele>102.6</ele>
        <time>2022-05-21T10:59:27Z</time>
      </trkpt>
      <trkpt lat="43.27235" lon="2.78627">
        <ele>102.4</ele>
        <time>2022-05-21T10:59:50Z</time>
      </trkpt>
      <trkpt lat="43.27217" lon="2.78644">
        <ele>105.4</ele>
        <time>2022-05-21T11:00:05Z</time>
      </trkpt>
      <trkpt lat="43.27213" lon="2.78645">
        <ele>106.3</ele>
        <time>2022-05-21T11:00:14Z</time>
      </trkpt>
      <trkpt lat="43.27222" lon="2.78645">
        <ele>103.8</ele>
        <time>2022-05-21T11:00:36Z</time>
      </trkpt>
      <trkpt lat="43.27221" lon="2.78657">
        <ele>103.5</ele>
        <time>2022-05-21T11:00:45Z</time>
      </trkpt>
      <trkpt lat="43.27228" lon="2.78683">
        <ele>100.9</ele>
        <time>2022-05-21T11:01:03Z</time>
      </trkpt>
      <trkpt lat="43.27235" lon="2.7872">
        <ele>97.3</ele>
        <time>2022-05-21T11:01:14Z</time>
      </trkpt>
      <trkpt lat="43.27238" lon="2.78727">
        <ele>96.6</ele>
        <time>2022-05-21T11:01:41Z</time>
      </trkpt>
      <trkpt lat="43.27246" lon="2.78739">
        <ele>95</ele>
        <time>2022-05-21T11:01:50Z</time>
      </trkpt>
      <trkpt lat="43.27236" lon="2.78748">
        <ele>96.1</ele>
        <time>2022-05-21T11:05:00Z</time>
      </trkpt>
      <trkpt lat="43.27228" lon="2.78767">
        <ele>96</ele>
        <time>2022-05-21T11:05:19Z</time>
      </trkpt>
      <trkpt lat="43.27226" lon="2.78776">
        <ele>95.7</ele>
        <time>2022-05-21T11:06:15Z</time>
      </trkpt>
      <trkpt lat="43.27205" lon="2.78853">
        <ele>92.8</ele>
        <time>2022-05-21T11:06:30Z</time>
      </trkpt>
      <trkpt lat="43.27182" lon="2.78936">
        <ele>90.3</ele>
        <time>2022-05-21T11:06:51Z</time>
      </trkpt>
      <trkpt lat="43.27178" lon="2.78949">
        <ele>90</ele>
        <time>2022-05-21T11:07:10Z</time>
      </trkpt>
      <trkpt lat="43.27159" lon="2.78936">
        <ele>92.2</ele>
        <time>2022-05-21T11:07:25Z</time>
      </trkpt>
      <trkpt lat="43.27151" lon="2.78929">
        <ele>93.6</ele>
        <time>2022-05-21T11:07:54Z</time>
      </trkpt>
      <trkpt lat="43.27142" lon="2.78922">
        <ele>95.2</ele>
        <time>2022-05-21T11:08:22Z</time>
      </trkpt>
      <trkpt lat="43.27131" lon="2.78916">
        <ele>97.3</ele>
        <time>2022-05-21T11:08:37Z</time>
      </trkpt>
      <trkpt lat="43.2715" lon="2.78929">
        <ele>93.8</ele>
        <time>2022-05-21T11:09:28Z</time>
      </trkpt>
      <trkpt lat="43.27153" lon="2.78931">
        <ele>93.3</ele>
        <time>2022-05-21T11:09:36Z</time>
      </trkpt>
      <trkpt lat="43.27155" lon="2.78937">
        <ele>92.6</ele>
        <time>2022-05-21T11:09:49Z</time>
      </trkpt>
      <trkpt lat="43.27151" lon="2.78939">
        <ele>93</ele>
        <time>2022-05-21T11:10:13Z</time>
      </trkpt>
      <trkpt lat="43.2714" lon="2.78938">
        <ele>94.3</ele>
        <time>2022-05-21T11:11:13Z</time>
      </trkpt>
      <trkpt lat="43.27129" lon="2.78966">
        <ele>94.6</ele>
        <time>2022-05-21T11:11:33Z</time>
      </trkpt>
      <trkpt lat="43.27122" lon="2.78985">
        <ele>94.7</ele>
        <time>2022-05-21T11:11:54Z</time>
      </trkpt>
      <trkpt lat="43.27105" lon="2.79037">
        <ele>94.4</ele>
        <time>2022-05-21T11:12:18Z</time>
      </trkpt>
      <trkpt lat="43.27089" lon="2.79029">
        <ele>96.4</ele>
        <time>2022-05-21T11:12:32Z</time>
      </trkpt>
      <trkpt lat="43.27067" lon="2.79005">
        <ele>99.5</ele>
        <time>2022-05-21T11:12:52Z</time>
      </trkpt>
      <trkpt lat="43.27049" lon="2.78991">
        <ele>102.8</ele>
        <time>2022-05-21T11:13:08Z</time>
      </trkpt>
      <trkpt lat="43.27031" lon="2.78982">
        <ele>106.2</ele>
        <time>2022-05-21T11:13:26Z</time>
      </trkpt>
      <trkpt lat="43.27019" lon="2.78976">
        <ele>108</ele>
        <time>2022-05-21T11:13:45Z</time>
      </trkpt>
      <trkpt lat="43.27006" lon="2.78969">
        <ele>109.2</ele>
        <time>2022-05-21T11:14:03Z</time>
      </trkpt>
      <trkpt lat="43.27003" lon="2.78991">
        <ele>108.6</ele>
        <time>2022-05-21T11:14:41Z</time>
      </trkpt>
      <trkpt lat="43.27005" lon="2.79066">
        <ele>109.4</ele>
        <time>2022-05-21T11:15:03Z</time>
      </trkpt>
      <trkpt lat="43.26991" lon="2.79125">
        <ele>111.9</ele>
        <time>2022-05-21T11:15:22Z</time>
      </trkpt>
      <trkpt lat="43.26975" lon="2.79197">
        <ele>110.1</ele>
        <time>2022-05-21T11:15:37Z</time>
      </trkpt>
      <trkpt lat="43.2697" lon="2.79247">
        <ele>108.6</ele>
        <time>2022-05-21T11:15:42Z</time>
      </trkpt>
      <trkpt lat="43.26983" lon="2.793">
        <ele>102.8</ele>
        <time>2022-05-21T11:15:47Z</time>
      </trkpt>
      <trkpt lat="43.27022" lon="2.79352">
        <ele>96.5</ele>
        <time>2022-05-21T11:15:53Z</time>
      </trkpt>
      <trkpt lat="43.27053" lon="2.79406">
        <ele>93.8</ele>
        <time>2022-05-21T11:15:58Z</time>
      </trkpt>
      <trkpt lat="43.2708" lon="2.79472">
        <ele>95.2</ele>
        <time>2022-05-21T11:16:05Z</time>
      </trkpt>
      <trkpt lat="43.27084" lon="2.79533">
        <ele>96.2</ele>
        <time>2022-05-21T11:16:16Z</time>
      </trkpt>
      <trkpt lat="43.27073" lon="2.79605">
        <ele>96.4</ele>
        <time>2022-05-21T11:16:32Z</time>
      </trkpt>
      <trkpt lat="43.27054" lon="2.79717">
        <ele>95.1</ele>
        <time>2022-05-21T11:16:49Z</time>
      </trkpt>
      <trkpt lat="43.27039" lon="2.79779">
        <ele>99.6</ele>
        <time>2022-05-21T11:17:08Z</time>
      </trkpt>
      <trkpt lat="43.27031" lon="2.79806">
        <ele>100.1</ele>
        <time>2022-05-21T11:17:18Z</time>
      </trkpt>
      <trkpt lat="43.27007" lon="2.79804">
        <ele>100.9</ele>
        <time>2022-05-21T11:17:30Z</time>
      </trkpt>
      <trkpt lat="43.26983" lon="2.7978">
        <ele>104.1</ele>
        <time>2022-05-21T11:17:48Z</time>
      </trkpt>
      <trkpt lat="43.26972" lon="2.79765">
        <ele>104.9</ele>
        <time>2022-05-21T11:17:58Z</time>
      </trkpt>
      <trkpt lat="43.26945" lon="2.79747">
        <ele>107.2</ele>
        <time>2022-05-21T11:18:12Z</time>
      </trkpt>
      <trkpt lat="43.26896" lon="2.79728">
        <ele>107.8</ele>
        <time>2022-05-21T11:18:36Z</time>
      </trkpt>
      <trkpt lat="43.26873" lon="2.79711">
        <ele>110.1</ele>
        <time>2022-05-21T11:18:52Z</time>
      </trkpt>
      <trkpt lat="43.26859" lon="2.79694">
        <ele>111.3</ele>
        <time>2022-05-21T11:19:02Z</time>
      </trkpt>
      <trkpt lat="43.2685" lon="2.79688">
        <ele>112.6</ele>
        <time>2022-05-21T11:19:08Z</time>
      </trkpt>
      <trkpt lat="43.26832" lon="2.79667">
        <ele>114.3</ele>
        <time>2022-05-21T11:19:20Z</time>
      </trkpt>
      <trkpt lat="43.2682" lon="2.79685">
        <ele>117.1</ele>
        <time>2022-05-21T11:19:33Z</time>
      </trkpt>
      <trkpt lat="43.26812" lon="2.79701">
        <ele>118.9</ele>
        <time>2022-05-21T11:19:45Z</time>
      </trkpt>
      <trkpt lat="43.26801" lon="2.7974">
        <ele>121.5</ele>
        <time>2022-05-21T11:20:00Z</time>
      </trkpt>
      <trkpt lat="43.26796" lon="2.79764">
        <ele>122.7</ele>
        <time>2022-05-21T11:20:10Z</time>
      </trkpt>
      <trkpt lat="43.26789" lon="2.79787">
        <ele>123.5</ele>
        <time>2022-05-21T11:20:22Z</time>
      </trkpt>
      <trkpt lat="43.26784" lon="2.79802">
        <ele>123.5</ele>
        <time>2022-05-21T11:21:02Z</time>
      </trkpt>
      <trkpt lat="43.26755" lon="2.79865">
        <ele>122.5</ele>
        <time>2022-05-21T11:21:19Z</time>
      </trkpt>
      <trkpt lat="43.26714" lon="2.7989">
        <ele>122.1</ele>
        <time>2022-05-21T11:21:36Z</time>
      </trkpt>
      <trkpt lat="43.26685" lon="2.79916">
        <ele>118.4</ele>
        <time>2022-05-21T11:21:48Z</time>
      </trkpt>
      <trkpt lat="43.26654" lon="2.79937">
        <ele>115.5</ele>
        <time>2022-05-21T11:21:57Z</time>
      </trkpt>
      <trkpt lat="43.26618" lon="2.80001">
        <ele>113.7</ele>
        <time>2022-05-21T11:22:14Z</time>
      </trkpt>
      <trkpt lat="43.26606" lon="2.80041">
        <ele>110.2</ele>
        <time>2022-05-21T11:22:21Z</time>
      </trkpt>
      <trkpt lat="43.26591" lon="2.80075">
        <ele>108.6</ele>
        <time>2022-05-21T11:22:28Z</time>
      </trkpt>
      <trkpt lat="43.26577" lon="2.80125">
        <ele>104.5</ele>
        <time>2022-05-21T11:22:39Z</time>
      </trkpt>
      <trkpt lat="43.26572" lon="2.80144">
        <ele>102</ele>
        <time>2022-05-21T11:22:43Z</time>
      </trkpt>
      <trkpt lat="43.26565" lon="2.80178">
        <ele>96.6</ele>
        <time>2022-05-21T11:22:50Z</time>
      </trkpt>
      <trkpt lat="43.26561" lon="2.80218">
        <ele>90.5</ele>
        <time>2022-05-21T11:22:56Z</time>
      </trkpt>
      <trkpt lat="43.26558" lon="2.80247">
        <ele>87.3</ele>
        <time>2022-05-21T11:23:01Z</time>
      </trkpt>
      <trkpt lat="43.26557" lon="2.80271">
        <ele>83.3</ele>
        <time>2022-05-21T11:23:06Z</time>
      </trkpt>
      <trkpt lat="43.26543" lon="2.80302">
        <ele>79.8</ele>
        <time>2022-05-21T11:23:10Z</time>
      </trkpt>
      <trkpt lat="43.2654" lon="2.8033">
        <ele>77.8</ele>
        <time>2022-05-21T11:23:15Z</time>
      </trkpt>
      <trkpt lat="43.26532" lon="2.80352">
        <ele>76.7</ele>
        <time>2022-05-21T11:23:21Z</time>
      </trkpt>
      <trkpt lat="43.26521" lon="2.80373">
        <ele>75.1</ele>
        <time>2022-05-21T11:23:28Z</time>
      </trkpt>
      <trkpt lat="43.26511" lon="2.80401">
        <ele>74.3</ele>
        <time>2022-05-21T11:23:39Z</time>
      </trkpt>
      <trkpt lat="43.26511" lon="2.8043">
        <ele>72.6</ele>
        <time>2022-05-21T11:23:48Z</time>
      </trkpt>
      <trkpt lat="43.26535" lon="2.80472">
        <ele>70.5</ele>
        <time>2022-05-21T11:23:59Z</time>
      </trkpt>
      <trkpt lat="43.26534" lon="2.8054">
        <ele>69.2</ele>
        <time>2022-05-21T11:24:10Z</time>
      </trkpt>
      <trkpt lat="43.26522" lon="2.80598">
        <ele>68.3</ele>
        <time>2022-05-21T11:24:21Z</time>
      </trkpt>
      <trkpt lat="43.26484" lon="2.80592">
        <ele>67.5</ele>
        <time>2022-05-21T11:24:30Z</time>
      </trkpt>
      <trkpt lat="43.26491" lon="2.80661">
        <ele>64.2</ele>
        <time>2022-05-21T11:24:41Z</time>
      </trkpt>
      <trkpt lat="43.26497" lon="2.80705">
        <ele>62.3</ele>
        <time>2022-05-21T11:24:48Z</time>
      </trkpt>
      <trkpt lat="43.26502" lon="2.80753">
        <ele>60.9</ele>
        <time>2022-05-21T11:24:56Z</time>
      </trkpt>
      <trkpt lat="43.26512" lon="2.80818">
        <ele>58.1</ele>
        <time>2022-05-21T11:25:07Z</time>
      </trkpt>
      <trkpt lat="43.2652" lon="2.80838">
        <ele>57.2</ele>
        <time>2022-05-21T11:25:11Z</time>
      </trkpt>
      <trkpt lat="43.26491" lon="2.80895">
        <ele>56.8</ele>
        <time>2022-05-21T11:25:23Z</time>
      </trkpt>
      <trkpt lat="43.26452" lon="2.80978">
        <ele>56.6</ele>
        <time>2022-05-21T11:25:40Z</time>
      </trkpt>
      <trkpt lat="43.26383" lon="2.81081">
        <ele>58.2</ele>
        <time>2022-05-21T11:26:05Z</time>
      </trkpt>
      <trkpt lat="43.26375" lon="2.81086">
        <ele>58.4</ele>
        <time>2022-05-21T11:26:10Z</time>
      </trkpt>
      <trkpt lat="43.26367" lon="2.81025">
        <ele>59.6</ele>
        <time>2022-05-21T11:26:26Z</time>
      </trkpt>
      <trkpt lat="43.26355" lon="2.80918">
        <ele>61.2</ele>
        <time>2022-05-21T11:26:53Z</time>
      </trkpt>
      <trkpt lat="43.26331" lon="2.80907">
        <ele>62.5</ele>
        <time>2022-05-21T11:27:05Z</time>
      </trkpt>
      <trkpt lat="43.26302" lon="2.80906">
        <ele>64.6</ele>
        <time>2022-05-21T11:27:21Z</time>
      </trkpt>
      <trkpt lat="43.26277" lon="2.80883">
        <ele>66.2</ele>
        <time>2022-05-21T11:27:37Z</time>
      </trkpt>
      <trkpt lat="43.26254" lon="2.80858">
        <ele>68</ele>
        <time>2022-05-21T11:27:55Z</time>
      </trkpt>
      <trkpt lat="43.26226" lon="2.8088">
        <ele>69.2</ele>
        <time>2022-05-21T11:28:13Z</time>
      </trkpt>
      <trkpt lat="43.26204" lon="2.80893">
        <ele>70.2</ele>
        <time>2022-05-21T11:28:26Z</time>
      </trkpt>
      <trkpt lat="43.26172" lon="2.80897">
        <ele>71.7</ele>
        <time>2022-05-21T11:28:46Z</time>
      </trkpt>
      <trkpt lat="43.26167" lon="2.80897">
        <ele>72</ele>
        <time>2022-05-21T11:28:54Z</time>
      </trkpt>
      <trkpt lat="43.26122" lon="2.80885">
        <ele>71.8</ele>
        <time>2022-05-21T11:29:35Z</time>
      </trkpt>
      <trkpt lat="43.26085" lon="2.80882">
        <ele>75.1</ele>
        <time>2022-05-21T11:29:57Z</time>
      </trkpt>
      <trkpt lat="43.26066" lon="2.80887">
        <ele>78.2</ele>
        <time>2022-05-21T11:30:11Z</time>
      </trkpt>
      <trkpt lat="43.26052" lon="2.80906">
        <ele>80.6</ele>
        <time>2022-05-21T11:30:26Z</time>
      </trkpt>
      <trkpt lat="43.26052" lon="2.8094">
        <ele>82.2</ele>
        <time>2022-05-21T11:30:42Z</time>
      </trkpt>
      <trkpt lat="43.26037" lon="2.81006">
        <ele>85.5</ele>
        <time>2022-05-21T11:31:11Z</time>
      </trkpt>
      <trkpt lat="43.26027" lon="2.81032">
        <ele>88.2</ele>
        <time>2022-05-21T11:31:25Z</time>
      </trkpt>
      <trkpt lat="43.26018" lon="2.8105">
        <ele>91</ele>
        <time>2022-05-21T11:31:37Z</time>
      </trkpt>
      <trkpt lat="43.26009" lon="2.8107">
        <ele>93.9</ele>
        <time>2022-05-21T11:31:50Z</time>
      </trkpt>
      <trkpt lat="43.26006" lon="2.81088">
        <ele>94.4</ele>
        <time>2022-05-21T11:32:02Z</time>
      </trkpt>
      <trkpt lat="43.26003" lon="2.81122">
        <ele>93.2</ele>
        <time>2022-05-21T11:32:40Z</time>
      </trkpt>
      <trkpt lat="43.25999" lon="2.81127">
        <ele>94</ele>
        <time>2022-05-21T11:32:53Z</time>
      </trkpt>
      <trkpt lat="43.25999" lon="2.8108">
        <ele>97.2</ele>
        <time>2022-05-21T11:33:09Z</time>
      </trkpt>
      <trkpt lat="43.25988" lon="2.81028">
        <ele>99.9</ele>
        <time>2022-05-21T11:33:26Z</time>
      </trkpt>
      <trkpt lat="43.25968" lon="2.80965">
        <ele>101</ele>
        <time>2022-05-21T11:33:45Z</time>
      </trkpt>
      <trkpt lat="43.25945" lon="2.80882">
        <ele>105.1</ele>
        <time>2022-05-21T11:34:13Z</time>
      </trkpt>
      <trkpt lat="43.25951" lon="2.80829">
        <ele>107.2</ele>
        <time>2022-05-21T11:34:30Z</time>
      </trkpt>
      <trkpt lat="43.25957" lon="2.80794">
        <ele>109</ele>
        <time>2022-05-21T11:34:41Z</time>
      </trkpt>
      <trkpt lat="43.25963" lon="2.80735">
        <ele>110.6</ele>
        <time>2022-05-21T11:34:59Z</time>
      </trkpt>
      <trkpt lat="43.25948" lon="2.80666">
        <ele>113.1</ele>
        <time>2022-05-21T11:35:22Z</time>
      </trkpt>
      <trkpt lat="43.25944" lon="2.80623">
        <ele>116.3</ele>
        <time>2022-05-21T11:35:36Z</time>
      </trkpt>
      <trkpt lat="43.25947" lon="2.80603">
        <ele>116.6</ele>
        <time>2022-05-21T11:35:46Z</time>
      </trkpt>
      <trkpt lat="43.25946" lon="2.80585">
        <ele>117.6</ele>
        <time>2022-05-21T11:35:57Z</time>
      </trkpt>
      <trkpt lat="43.25937" lon="2.80565">
        <ele>118.4</ele>
        <time>2022-05-21T11:36:08Z</time>
      </trkpt>
      <trkpt lat="43.25947" lon="2.80529">
        <ele>120.2</ele>
        <time>2022-05-21T11:36:30Z</time>
      </trkpt>
      <trkpt lat="43.25968" lon="2.80484">
        <ele>121.5</ele>
        <time>2022-05-21T11:36:51Z</time>
      </trkpt>
      <trkpt lat="43.25991" lon="2.80463">
        <ele>119.7</ele>
        <time>2022-05-21T11:37:03Z</time>
      </trkpt>
      <trkpt lat="43.26017" lon="2.8043">
        <ele>115.2</ele>
        <time>2022-05-21T11:37:17Z</time>
      </trkpt>
      <trkpt lat="43.26027" lon="2.80405">
        <ele>113.2</ele>
        <time>2022-05-21T11:37:26Z</time>
      </trkpt>
      <trkpt lat="43.26047" lon="2.80384">
        <ele>109.9</ele>
        <time>2022-05-21T11:37:31Z</time>
      </trkpt>
      <trkpt lat="43.26055" lon="2.80378">
        <ele>110.6</ele>
        <time>2022-05-21T11:37:37Z</time>
      </trkpt>
      <trkpt lat="43.2606" lon="2.80366">
        <ele>113.2</ele>
        <time>2022-05-21T11:38:16Z</time>
      </trkpt>
      <trkpt lat="43.26073" lon="2.80355">
        <ele>116.3</ele>
        <time>2022-05-21T11:38:33Z</time>
      </trkpt>
      <trkpt lat="43.2608" lon="2.80351">
        <ele>117.6</ele>
        <time>2022-05-21T11:38:45Z</time>
      </trkpt>
      <trkpt lat="43.26095" lon="2.80344">
        <ele>117.5</ele>
        <time>2022-05-21T11:38:56Z</time>
      </trkpt>
      <trkpt lat="43.26109" lon="2.80339">
        <ele>118.2</ele>
        <time>2022-05-21T11:39:12Z</time>
      </trkpt>
      <trkpt lat="43.26118" lon="2.80334">
        <ele>121.7</ele>
        <time>2022-05-21T11:39:23Z</time>
      </trkpt>
      <trkpt lat="43.26131" lon="2.80327">
        <ele>125</ele>
        <time>2022-05-21T11:40:13Z</time>
      </trkpt>
      <trkpt lat="43.26138" lon="2.80322">
        <ele>127.3</ele>
        <time>2022-05-21T11:40:34Z</time>
      </trkpt>
      <trkpt lat="43.26143" lon="2.80314">
        <ele>129.9</ele>
        <time>2022-05-21T11:41:06Z</time>
      </trkpt>
      <trkpt lat="43.26155" lon="2.80294">
        <ele>134.3</ele>
        <time>2022-05-21T11:41:22Z</time>
      </trkpt>
      <trkpt lat="43.26158" lon="2.80291">
        <ele>135.2</ele>
        <time>2022-05-21T11:41:31Z</time>
      </trkpt>
      <trkpt lat="43.26164" lon="2.80266">
        <ele>136.1</ele>
        <time>2022-05-21T11:42:14Z</time>
      </trkpt>
      <trkpt lat="43.26169" lon="2.80255">
        <ele>137</ele>
        <time>2022-05-21T11:42:24Z</time>
      </trkpt>
      <trkpt lat="43.26179" lon="2.80226">
        <ele>137.3</ele>
        <time>2022-05-21T11:42:40Z</time>
      </trkpt>
      <trkpt lat="43.26193" lon="2.80196">
        <ele>139.5</ele>
        <time>2022-05-21T11:42:55Z</time>
      </trkpt>
      <trkpt lat="43.26211" lon="2.80163">
        <ele>138</ele>
        <time>2022-05-21T11:43:06Z</time>
      </trkpt>
      <trkpt lat="43.26238" lon="2.80117">
        <ele>139</ele>
        <time>2022-05-21T11:43:20Z</time>
      </trkpt>
      <trkpt lat="43.26268" lon="2.80085">
        <ele>139</ele>
        <time>2022-05-21T11:43:35Z</time>
      </trkpt>
      <trkpt lat="43.26287" lon="2.80056">
        <ele>138</ele>
        <time>2022-05-21T11:43:44Z</time>
      </trkpt>
      <trkpt lat="43.26339" lon="2.80023">
        <ele>138.4</ele>
        <time>2022-05-21T11:43:57Z</time>
      </trkpt>
      <trkpt lat="43.26362" lon="2.79996">
        <ele>138.6</ele>
        <time>2022-05-21T11:44:05Z</time>
      </trkpt>
      <trkpt lat="43.26425" lon="2.79926">
        <ele>138.9</ele>
        <time>2022-05-21T11:44:26Z</time>
      </trkpt>
      <trkpt lat="43.26436" lon="2.79897">
        <ele>140.1</ele>
        <time>2022-05-21T11:44:36Z</time>
      </trkpt>
      <trkpt lat="43.26459" lon="2.79869">
        <ele>141.6</ele>
        <time>2022-05-21T11:44:47Z</time>
      </trkpt>
      <trkpt lat="43.26467" lon="2.79848">
        <ele>143.7</ele>
        <time>2022-05-21T11:44:55Z</time>
      </trkpt>
      <trkpt lat="43.26479" lon="2.79831">
        <ele>146.4</ele>
        <time>2022-05-21T11:45:04Z</time>
      </trkpt>
      <trkpt lat="43.26491" lon="2.79818">
        <ele>148.2</ele>
        <time>2022-05-21T11:45:14Z</time>
      </trkpt>
      <trkpt lat="43.26507" lon="2.79806">
        <ele>150.5</ele>
        <time>2022-05-21T11:45:24Z</time>
      </trkpt>
      <trkpt lat="43.2652" lon="2.79792">
        <ele>151.6</ele>
        <time>2022-05-21T11:45:33Z</time>
      </trkpt>
      <trkpt lat="43.26528" lon="2.79779">
        <ele>152.9</ele>
        <time>2022-05-21T11:45:45Z</time>
      </trkpt>
      <trkpt lat="43.26526" lon="2.79769">
        <ele>153.3</ele>
        <time>2022-05-21T11:46:20Z</time>
      </trkpt>
      <trkpt lat="43.26533" lon="2.79754">
        <ele>154.3</ele>
        <time>2022-05-21T11:46:27Z</time>
      </trkpt>
      <trkpt lat="43.26559" lon="2.79746">
        <ele>152.3</ele>
        <time>2022-05-21T11:46:44Z</time>
      </trkpt>
      <trkpt lat="43.26577" lon="2.79715">
        <ele>152.1</ele>
        <time>2022-05-21T11:46:52Z</time>
      </trkpt>
      <trkpt lat="43.26603" lon="2.79651">
        <ele>153.7</ele>
        <time>2022-05-21T11:47:10Z</time>
      </trkpt>
      <trkpt lat="43.26606" lon="2.79634">
        <ele>153.6</ele>
        <time>2022-05-21T11:47:16Z</time>
      </trkpt>
      <trkpt lat="43.26612" lon="2.79611">
        <ele>155</ele>
        <time>2022-05-21T11:47:24Z</time>
      </trkpt>
      <trkpt lat="43.26613" lon="2.79583">
        <ele>155</ele>
        <time>2022-05-21T11:47:34Z</time>
      </trkpt>
      <trkpt lat="43.26616" lon="2.79553">
        <ele>153.2</ele>
        <time>2022-05-21T11:47:44Z</time>
      </trkpt>
      <trkpt lat="43.2662" lon="2.79529">
        <ele>153.3</ele>
        <time>2022-05-21T11:47:53Z</time>
      </trkpt>
      <trkpt lat="43.26647" lon="2.79502">
        <ele>152.8</ele>
        <time>2022-05-21T11:48:12Z</time>
      </trkpt>
      <trkpt lat="43.26673" lon="2.79496">
        <ele>151</ele>
        <time>2022-05-21T11:48:23Z</time>
      </trkpt>
      <trkpt lat="43.26682" lon="2.79467">
        <ele>151.6</ele>
        <time>2022-05-21T11:48:30Z</time>
      </trkpt>
      <trkpt lat="43.26682" lon="2.79448">
        <ele>153.1</ele>
        <time>2022-05-21T11:48:39Z</time>
      </trkpt>
      <trkpt lat="43.26675" lon="2.79429">
        <ele>155.5</ele>
        <time>2022-05-21T11:48:47Z</time>
      </trkpt>
      <trkpt lat="43.26673" lon="2.79417">
        <ele>156.8</ele>
        <time>2022-05-21T11:48:54Z</time>
      </trkpt>
      <trkpt lat="43.26665" lon="2.79393">
        <ele>158.6</ele>
        <time>2022-05-21T11:49:07Z</time>
      </trkpt>
      <trkpt lat="43.26667" lon="2.79373">
        <ele>159.6</ele>
        <time>2022-05-21T11:49:17Z</time>
      </trkpt>
      <trkpt lat="43.26668" lon="2.7936">
        <ele>160</ele>
        <time>2022-05-21T11:49:22Z</time>
      </trkpt>
      <trkpt lat="43.26664" lon="2.79327">
        <ele>159.9</ele>
        <time>2022-05-21T11:49:34Z</time>
      </trkpt>
      <trkpt lat="43.26666" lon="2.79295">
        <ele>161.6</ele>
        <time>2022-05-21T11:49:45Z</time>
      </trkpt>
      <trkpt lat="43.26689" lon="2.79303">
        <ele>159.4</ele>
        <time>2022-05-21T11:49:54Z</time>
      </trkpt>
      <trkpt lat="43.267" lon="2.79291">
        <ele>157.9</ele>
        <time>2022-05-21T11:50:01Z</time>
      </trkpt>
      <trkpt lat="43.26709" lon="2.79277">
        <ele>155.5</ele>
        <time>2022-05-21T11:50:08Z</time>
      </trkpt>
      <trkpt lat="43.26719" lon="2.79262">
        <ele>153.1</ele>
        <time>2022-05-21T11:50:14Z</time>
      </trkpt>
      <trkpt lat="43.26756" lon="2.79258">
        <ele>144.6</ele>
        <time>2022-05-21T11:50:22Z</time>
      </trkpt>
      <trkpt lat="43.26762" lon="2.79256">
        <ele>143.3</ele>
        <time>2022-05-21T11:50:26Z</time>
      </trkpt>
      <trkpt lat="43.2677" lon="2.79245">
        <ele>141.6</ele>
        <time>2022-05-21T11:50:31Z</time>
      </trkpt>
      <trkpt lat="43.26771" lon="2.79196">
        <ele>140.9</ele>
        <time>2022-05-21T11:50:41Z</time>
      </trkpt>
      <trkpt lat="43.26772" lon="2.79149">
        <ele>141.1</ele>
        <time>2022-05-21T11:50:49Z</time>
      </trkpt>
      <trkpt lat="43.26762" lon="2.79095">
        <ele>143.5</ele>
        <time>2022-05-21T11:51:04Z</time>
      </trkpt>
      <trkpt lat="43.26755" lon="2.7907">
        <ele>144.7</ele>
        <time>2022-05-21T11:51:12Z</time>
      </trkpt>
      <trkpt lat="43.26753" lon="2.79056">
        <ele>145.8</ele>
        <time>2022-05-21T11:51:19Z</time>
      </trkpt>
      <trkpt lat="43.26744" lon="2.79031">
        <ele>146.9</ele>
        <time>2022-05-21T11:51:30Z</time>
      </trkpt>
      <trkpt lat="43.26738" lon="2.7901">
        <ele>148.1</ele>
        <time>2022-05-21T11:51:40Z</time>
      </trkpt>
      <trkpt lat="43.26734" lon="2.78966">
        <ele>149.3</ele>
        <time>2022-05-21T11:51:52Z</time>
      </trkpt>
      <trkpt lat="43.26724" lon="2.78926">
        <ele>150.6</ele>
        <time>2022-05-21T11:52:03Z</time>
      </trkpt>
      <trkpt lat="43.26722" lon="2.78843">
        <ele>151.7</ele>
        <time>2022-05-21T11:52:24Z</time>
      </trkpt>
      <trkpt lat="43.2672" lon="2.78767">
        <ele>151</ele>
        <time>2022-05-21T11:52:39Z</time>
      </trkpt>
      <trkpt lat="43.26758" lon="2.78754">
        <ele>151.9</ele>
        <time>2022-05-21T11:52:52Z</time>
      </trkpt>
      <trkpt lat="43.26774" lon="2.78717">
        <ele>153</ele>
        <time>2022-05-21T11:53:07Z</time>
      </trkpt>
      <trkpt lat="43.26783" lon="2.78676">
        <ele>153.1</ele>
        <time>2022-05-21T11:53:17Z</time>
      </trkpt>
      <trkpt lat="43.26805" lon="2.78599">
        <ele>154.1</ele>
        <time>2022-05-21T11:53:40Z</time>
      </trkpt>
      <trkpt lat="43.26814" lon="2.78577">
        <ele>151.9</ele>
        <time>2022-05-21T11:56:26Z</time>
      </trkpt>
      <trkpt lat="43.26823" lon="2.7855">
        <ele>151.9</ele>
        <time>2022-05-21T11:56:34Z</time>
      </trkpt>
      <trkpt lat="43.26836" lon="2.78503">
        <ele>155.1</ele>
        <time>2022-05-21T11:56:47Z</time>
      </trkpt>
      <trkpt lat="43.2685" lon="2.78475">
        <ele>158.2</ele>
        <time>2022-05-21T11:56:59Z</time>
      </trkpt>
      <trkpt lat="43.26861" lon="2.78451">
        <ele>160</ele>
        <time>2022-05-21T11:57:12Z</time>
      </trkpt>
      <trkpt lat="43.26866" lon="2.7844">
        <ele>160.4</ele>
        <time>2022-05-21T11:57:22Z</time>
      </trkpt>
      <trkpt lat="43.26877" lon="2.78426">
        <ele>162.3</ele>
        <time>2022-05-21T11:57:31Z</time>
      </trkpt>
      <trkpt lat="43.26881" lon="2.78413">
        <ele>163.7</ele>
        <time>2022-05-21T11:57:39Z</time>
      </trkpt>
      <trkpt lat="43.26888" lon="2.78401">
        <ele>165.4</ele>
        <time>2022-05-21T11:57:50Z</time>
      </trkpt>
      <trkpt lat="43.26896" lon="2.78374">
        <ele>167.4</ele>
        <time>2022-05-21T11:58:03Z</time>
      </trkpt>
      <trkpt lat="43.26906" lon="2.78359">
        <ele>168.9</ele>
        <time>2022-05-21T11:58:13Z</time>
      </trkpt>
      <trkpt lat="43.26912" lon="2.78355">
        <ele>169.7</ele>
        <time>2022-05-21T11:58:18Z</time>
      </trkpt>
      <trkpt lat="43.2693" lon="2.78343">
        <ele>172.3</ele>
        <time>2022-05-21T11:58:31Z</time>
      </trkpt>
      <trkpt lat="43.2694" lon="2.78335">
        <ele>173.5</ele>
        <time>2022-05-21T11:58:40Z</time>
      </trkpt>
      <trkpt lat="43.26956" lon="2.78324">
        <ele>175.5</ele>
        <time>2022-05-21T11:58:56Z</time>
      </trkpt>
      <trkpt lat="43.26962" lon="2.78317">
        <ele>176.4</ele>
        <time>2022-05-21T11:59:02Z</time>
      </trkpt>
      <trkpt lat="43.26977" lon="2.78304">
        <ele>177.9</ele>
        <time>2022-05-21T11:59:14Z</time>
      </trkpt>
      <trkpt lat="43.26988" lon="2.78299">
        <ele>177.8</ele>
        <time>2022-05-21T11:59:30Z</time>
      </trkpt>
      <trkpt lat="43.2699" lon="2.78272">
        <ele>177.7</ele>
        <time>2022-05-21T12:00:15Z</time>
      </trkpt>
      <trkpt lat="43.26978" lon="2.78236">
        <ele>175.3</ele>
        <time>2022-05-21T12:00:24Z</time>
      </trkpt>
      <trkpt lat="43.26952" lon="2.78188">
        <ele>172</ele>
        <time>2022-05-21T12:00:33Z</time>
      </trkpt>
      <trkpt lat="43.26947" lon="2.78124">
        <ele>166.7</ele>
        <time>2022-05-21T12:00:40Z</time>
      </trkpt>
      <trkpt lat="43.26952" lon="2.78061">
        <ele>165.4</ele>
        <time>2022-05-21T12:00:48Z</time>
      </trkpt>
      <trkpt lat="43.26949" lon="2.78013">
        <ele>162.4</ele>
        <time>2022-05-21T12:00:55Z</time>
      </trkpt>
      <trkpt lat="43.2694" lon="2.77968">
        <ele>158.9</ele>
        <time>2022-05-21T12:01:01Z</time>
      </trkpt>
      <trkpt lat="43.26899" lon="2.7795">
        <ele>154.2</ele>
        <time>2022-05-21T12:01:08Z</time>
      </trkpt>
      <trkpt lat="43.26886" lon="2.7796">
        <ele>151.8</ele>
        <time>2022-05-21T12:01:13Z</time>
      </trkpt>
      <trkpt lat="43.26864" lon="2.7796">
        <ele>146.7</ele>
        <time>2022-05-21T12:01:19Z</time>
      </trkpt>
      <trkpt lat="43.26847" lon="2.77934">
        <ele>145.9</ele>
        <time>2022-05-21T12:01:25Z</time>
      </trkpt>
      <trkpt lat="43.26809" lon="2.77885">
        <ele>148.3</ele>
        <time>2022-05-21T12:01:46Z</time>
      </trkpt>
      <trkpt lat="43.26783" lon="2.77851">
        <ele>148.5</ele>
        <time>2022-05-21T12:02:01Z</time>
      </trkpt>
      <trkpt lat="43.26739" lon="2.77802">
        <ele>148</ele>
        <time>2022-05-21T12:02:22Z</time>
      </trkpt>
      <trkpt lat="43.26726" lon="2.77784">
        <ele>147.7</ele>
        <time>2022-05-21T12:06:46Z</time>
      </trkpt>
      <trkpt lat="43.2671" lon="2.77773">
        <ele>145.9</ele>
        <time>2022-05-21T12:06:55Z</time>
      </trkpt>
      <trkpt lat="43.26672" lon="2.7774">
        <ele>146.8</ele>
        <time>2022-05-21T12:07:03Z</time>
      </trkpt>
      <trkpt lat="43.26652" lon="2.77732">
        <ele>148.9</ele>
        <time>2022-05-21T12:07:29Z</time>
      </trkpt>
      <trkpt lat="43.26642" lon="2.77724">
        <ele>150.5</ele>
        <time>2022-05-21T12:07:36Z</time>
      </trkpt>
      <trkpt lat="43.26642" lon="2.77701">
        <ele>153.1</ele>
        <time>2022-05-21T12:07:46Z</time>
      </trkpt>
      <trkpt lat="43.26648" lon="2.77675">
        <ele>155</ele>
        <time>2022-05-21T12:08:02Z</time>
      </trkpt>
      <trkpt lat="43.26648" lon="2.77663">
        <ele>155.5</ele>
        <time>2022-05-21T12:08:11Z</time>
      </trkpt>
      <trkpt lat="43.26646" lon="2.77627">
        <ele>153.7</ele>
        <time>2022-05-21T12:08:26Z</time>
      </trkpt>
      <trkpt lat="43.26631" lon="2.77584">
        <ele>154.6</ele>
        <time>2022-05-21T12:08:42Z</time>
      </trkpt>
      <trkpt lat="43.26622" lon="2.77562">
        <ele>156.4</ele>
        <time>2022-05-21T12:08:51Z</time>
      </trkpt>
      <trkpt lat="43.26616" lon="2.77525">
        <ele>159.3</ele>
        <time>2022-05-21T12:09:05Z</time>
      </trkpt>
      <trkpt lat="43.26612" lon="2.77505">
        <ele>160.8</ele>
        <time>2022-05-21T12:09:13Z</time>
      </trkpt>
      <trkpt lat="43.26598" lon="2.77467">
        <ele>162.2</ele>
        <time>2022-05-21T12:09:27Z</time>
      </trkpt>
      <trkpt lat="43.26595" lon="2.77442">
        <ele>163.3</ele>
        <time>2022-05-21T12:09:40Z</time>
      </trkpt>
      <trkpt lat="43.26593" lon="2.77429">
        <ele>164.1</ele>
        <time>2022-05-21T12:09:47Z</time>
      </trkpt>
      <trkpt lat="43.26586" lon="2.7741">
        <ele>165.8</ele>
        <time>2022-05-21T12:09:56Z</time>
      </trkpt>
      <trkpt lat="43.26572" lon="2.77385">
        <ele>167.9</ele>
        <time>2022-05-21T12:10:07Z</time>
      </trkpt>
      <trkpt lat="43.26571" lon="2.77358">
        <ele>168.1</ele>
        <time>2022-05-21T12:10:16Z</time>
      </trkpt>
      <trkpt lat="43.26563" lon="2.77326">
        <ele>171.2</ele>
        <time>2022-05-21T12:10:28Z</time>
      </trkpt>
      <trkpt lat="43.26568" lon="2.77284">
        <ele>173.2</ele>
        <time>2022-05-21T12:10:47Z</time>
      </trkpt>
      <trkpt lat="43.26569" lon="2.77269">
        <ele>173.7</ele>
        <time>2022-05-21T12:10:57Z</time>
      </trkpt>
      <trkpt lat="43.26566" lon="2.77249">
        <ele>174.9</ele>
        <time>2022-05-21T12:11:08Z</time>
      </trkpt>
      <trkpt lat="43.26553" lon="2.77234">
        <ele>177.7</ele>
        <time>2022-05-21T12:11:18Z</time>
      </trkpt>
      <trkpt lat="43.2654" lon="2.77231">
        <ele>175.2</ele>
        <time>2022-05-21T12:12:39Z</time>
      </trkpt>
      <trkpt lat="43.26527" lon="2.77201">
        <ele>170.5</ele>
        <time>2022-05-21T12:12:46Z</time>
      </trkpt>
      <trkpt lat="43.26509" lon="2.77193">
        <ele>166.5</ele>
        <time>2022-05-21T12:12:52Z</time>
      </trkpt>
      <trkpt lat="43.26487" lon="2.77199">
        <ele>163.6</ele>
        <time>2022-05-21T12:12:56Z</time>
      </trkpt>
      <trkpt lat="43.26451" lon="2.77209">
        <ele>158.1</ele>
        <time>2022-05-21T12:13:02Z</time>
      </trkpt>
      <trkpt lat="43.26435" lon="2.77195">
        <ele>157</ele>
        <time>2022-05-21T12:13:07Z</time>
      </trkpt>
      <trkpt lat="43.26413" lon="2.77203">
        <ele>150.1</ele>
        <time>2022-05-21T12:13:12Z</time>
      </trkpt>
      <trkpt lat="43.26377" lon="2.77215">
        <ele>143</ele>
        <time>2022-05-21T12:13:19Z</time>
      </trkpt>
      <trkpt lat="43.26362" lon="2.77215">
        <ele>139.8</ele>
        <time>2022-05-21T12:13:23Z</time>
      </trkpt>
      <trkpt lat="43.26334" lon="2.77209">
        <ele>134.5</ele>
        <time>2022-05-21T12:13:28Z</time>
      </trkpt>
      <trkpt lat="43.26303" lon="2.77192">
        <ele>132.1</ele>
        <time>2022-05-21T12:13:33Z</time>
      </trkpt>
      <trkpt lat="43.26262" lon="2.77181">
        <ele>124</ele>
        <time>2022-05-21T12:13:39Z</time>
      </trkpt>
      <trkpt lat="43.26229" lon="2.77185">
        <ele>119.7</ele>
        <time>2022-05-21T12:13:44Z</time>
      </trkpt>
      <trkpt lat="43.26192" lon="2.77189">
        <ele>114.8</ele>
        <time>2022-05-21T12:13:49Z</time>
      </trkpt>
      <trkpt lat="43.26164" lon="2.77198">
        <ele>111.2</ele>
        <time>2022-05-21T12:13:55Z</time>
      </trkpt>
      <trkpt lat="43.26138" lon="2.77189">
        <ele>109.7</ele>
        <time>2022-05-21T12:14:00Z</time>
      </trkpt>
      <trkpt lat="43.26115" lon="2.7718">
        <ele>103.9</ele>
        <time>2022-05-21T12:14:06Z</time>
      </trkpt>
      <trkpt lat="43.26105" lon="2.77189">
        <ele>104.4</ele>
        <time>2022-05-21T12:14:10Z</time>
      </trkpt>
      <trkpt lat="43.26091" lon="2.77201">
        <ele>102</ele>
        <time>2022-05-21T12:15:56Z</time>
      </trkpt>
      <trkpt lat="43.26082" lon="2.77177">
        <ele>100.1</ele>
        <time>2022-05-21T12:16:10Z</time>
      </trkpt>
      <trkpt lat="43.26098" lon="2.77125">
        <ele>97.4</ele>
        <time>2022-05-21T12:16:16Z</time>
      </trkpt>
      <trkpt lat="43.26112" lon="2.7709">
        <ele>92.2</ele>
        <time>2022-05-21T12:16:23Z</time>
      </trkpt>
      <trkpt lat="43.26122" lon="2.7703">
        <ele>87.2</ele>
        <time>2022-05-21T12:16:29Z</time>
      </trkpt>
      <trkpt lat="43.26132" lon="2.7694">
        <ele>80.3</ele>
        <time>2022-05-21T12:16:36Z</time>
      </trkpt>
      <trkpt lat="43.26138" lon="2.76897">
        <ele>76.6</ele>
        <time>2022-05-21T12:16:40Z</time>
      </trkpt>
      <trkpt lat="43.26141" lon="2.76852">
        <ele>74.7</ele>
        <time>2022-05-21T12:16:45Z</time>
      </trkpt>
      <trkpt lat="43.26143" lon="2.7679">
        <ele>71.9</ele>
        <time>2022-05-21T12:16:49Z</time>
      </trkpt>
      <trkpt lat="43.26152" lon="2.76695">
        <ele>69.5</ele>
        <time>2022-05-21T12:16:57Z</time>
      </trkpt>
      <trkpt lat="43.26161" lon="2.76597">
        <ele>66.8</ele>
        <time>2022-05-21T12:17:05Z</time>
      </trkpt>
      <trkpt lat="43.26163" lon="2.76537">
        <ele>67.9</ele>
        <time>2022-05-21T12:17:12Z</time>
      </trkpt>
      <trkpt lat="43.26156" lon="2.76519">
        <ele>68.7</ele>
        <time>2022-05-21T12:17:20Z</time>
      </trkpt>
      <trkpt lat="43.26108" lon="2.76499">
        <ele>71.2</ele>
        <time>2022-05-21T12:17:52Z</time>
      </trkpt>
      <trkpt lat="43.2606" lon="2.76479">
        <ele>75.3</ele>
        <time>2022-05-21T12:18:29Z</time>
      </trkpt>
      <trkpt lat="43.26029" lon="2.76465">
        <ele>78.4</ele>
        <time>2022-05-21T12:18:46Z</time>
      </trkpt>
      <trkpt lat="43.25998" lon="2.76451">
        <ele>80.6</ele>
        <time>2022-05-21T12:19:04Z</time>
      </trkpt>
      <trkpt lat="43.25956" lon="2.76425">
        <ele>84.1</ele>
        <time>2022-05-21T12:19:28Z</time>
      </trkpt>
      <trkpt lat="43.25936" lon="2.764">
        <ele>85.6</ele>
        <time>2022-05-21T12:19:42Z</time>
      </trkpt>
      <trkpt lat="43.25901" lon="2.76356">
        <ele>88</ele>
        <time>2022-05-21T12:21:31Z</time>
      </trkpt>
      <trkpt lat="43.25912" lon="2.76339">
        <ele>90.3</ele>
        <time>2022-05-21T12:23:31Z</time>
      </trkpt>
      <trkpt lat="43.25928" lon="2.76314">
        <ele>91.6</ele>
        <time>2022-05-21T12:23:47Z</time>
      </trkpt>
      <trkpt lat="43.2594" lon="2.76294">
        <ele>93.1</ele>
        <time>2022-05-21T12:24:29Z</time>
      </trkpt>
      <trkpt lat="43.25954" lon="2.76279">
        <ele>94.5</ele>
        <time>2022-05-21T12:24:41Z</time>
      </trkpt>
      <trkpt lat="43.25971" lon="2.76264">
        <ele>94.6</ele>
        <time>2022-05-21T12:24:53Z</time>
      </trkpt>
      <trkpt lat="43.26017" lon="2.76214">
        <ele>90.8</ele>
        <time>2022-05-21T12:25:06Z</time>
      </trkpt>
      <trkpt lat="43.26035" lon="2.7619">
        <ele>89</ele>
        <time>2022-05-21T12:25:14Z</time>
      </trkpt>
      <trkpt lat="43.26022" lon="2.76121">
        <ele>85.6</ele>
        <time>2022-05-21T12:25:22Z</time>
      </trkpt>
      <trkpt lat="43.26031" lon="2.76079">
        <ele>83.3</ele>
        <time>2022-05-21T12:25:27Z</time>
      </trkpt>
      <trkpt lat="43.26018" lon="2.76079">
        <ele>84</ele>
        <time>2022-05-21T12:25:33Z</time>
      </trkpt>
      <trkpt lat="43.25997" lon="2.76084">
        <ele>85.4</ele>
        <time>2022-05-21T12:25:46Z</time>
      </trkpt>
      <trkpt lat="43.25975" lon="2.76085">
        <ele>87.1</ele>
        <time>2022-05-21T12:26:01Z</time>
      </trkpt>
      <trkpt lat="43.25951" lon="2.76081">
        <ele>89</ele>
        <time>2022-05-21T12:26:17Z</time>
      </trkpt>
      <trkpt lat="43.25906" lon="2.7607">
        <ele>92.3</ele>
        <time>2022-05-21T12:26:40Z</time>
      </trkpt>
      <trkpt lat="43.25861" lon="2.76059">
        <ele>94.5</ele>
        <time>2022-05-21T12:27:00Z</time>
      </trkpt>
      <trkpt lat="43.25832" lon="2.76054">
        <ele>95.9</ele>
        <time>2022-05-21T12:27:14Z</time>
      </trkpt>
      <trkpt lat="43.25801" lon="2.76058">
        <ele>98.2</ele>
        <time>2022-05-21T12:27:28Z</time>
      </trkpt>
      <trkpt lat="43.25778" lon="2.76061">
        <ele>98.6</ele>
        <time>2022-05-21T12:27:44Z</time>
      </trkpt>
      <trkpt lat="43.25734" lon="2.7607">
        <ele>100.4</ele>
        <time>2022-05-21T12:28:03Z</time>
      </trkpt>
      <trkpt lat="43.25711" lon="2.76099">
        <ele>101.6</ele>
        <time>2022-05-21T12:28:17Z</time>
      </trkpt>
      <trkpt lat="43.25698" lon="2.76132">
        <ele>102</ele>
        <time>2022-05-21T12:28:29Z</time>
      </trkpt>
      <trkpt lat="43.2568" lon="2.76202">
        <ele>101.6</ele>
        <time>2022-05-21T12:28:46Z</time>
      </trkpt>
      <trkpt lat="43.25673" lon="2.76292">
        <ele>102.6</ele>
        <time>2022-05-21T12:29:10Z</time>
      </trkpt>
      <trkpt lat="43.25655" lon="2.76351">
        <ele>105.3</ele>
        <time>2022-05-21T12:29:31Z</time>
      </trkpt>
      <trkpt lat="43.25649" lon="2.76377">
        <ele>106.6</ele>
        <time>2022-05-21T12:29:42Z</time>
      </trkpt>
      <trkpt lat="43.25638" lon="2.76408">
        <ele>108.1</ele>
        <time>2022-05-21T12:29:56Z</time>
      </trkpt>
      <trkpt lat="43.2563" lon="2.76436">
        <ele>110.6</ele>
        <time>2022-05-21T12:30:11Z</time>
      </trkpt>
      <trkpt lat="43.25622" lon="2.76468">
        <ele>112.4</ele>
        <time>2022-05-21T12:30:26Z</time>
      </trkpt>
      <trkpt lat="43.2562" lon="2.76494">
        <ele>112.7</ele>
        <time>2022-05-21T12:30:37Z</time>
      </trkpt>
      <trkpt lat="43.25614" lon="2.76517">
        <ele>113.1</ele>
        <time>2022-05-21T12:30:49Z</time>
      </trkpt>
      <trkpt lat="43.25618" lon="2.76547">
        <ele>112.5</ele>
        <time>2022-05-21T12:33:28Z</time>
      </trkpt>
      <trkpt lat="43.25629" lon="2.76622">
        <ele>109.9</ele>
        <time>2022-05-21T12:33:45Z</time>
      </trkpt>
      <trkpt lat="43.25645" lon="2.76689">
        <ele>109.3</ele>
        <time>2022-05-21T12:33:55Z</time>
      </trkpt>
      <trkpt lat="43.25628" lon="2.76705">
        <ele>108.4</ele>
        <time>2022-05-21T12:34:03Z</time>
      </trkpt>
      <trkpt lat="43.25618" lon="2.76752">
        <ele>104.6</ele>
        <time>2022-05-21T12:34:09Z</time>
      </trkpt>
      <trkpt lat="43.25618" lon="2.76788">
        <ele>104.1</ele>
        <time>2022-05-21T12:34:13Z</time>
      </trkpt>
      <trkpt lat="43.25612" lon="2.76855">
        <ele>103.2</ele>
        <time>2022-05-21T12:34:22Z</time>
      </trkpt>
      <trkpt lat="43.25601" lon="2.76959">
        <ele>100.8</ele>
        <time>2022-05-21T12:34:38Z</time>
      </trkpt>
      <trkpt lat="43.25568" lon="2.76964">
        <ele>99.5</ele>
        <time>2022-05-21T12:34:46Z</time>
      </trkpt>
      <trkpt lat="43.25544" lon="2.76951">
        <ele>98.5</ele>
        <time>2022-05-21T12:34:56Z</time>
      </trkpt>
      <trkpt lat="43.25514" lon="2.76928">
        <ele>94.2</ele>
        <time>2022-05-21T12:35:07Z</time>
      </trkpt>
      <trkpt lat="43.25504" lon="2.76926">
        <ele>92.8</ele>
        <time>2022-05-21T12:35:12Z</time>
      </trkpt>
      <trkpt lat="43.25508" lon="2.76916">
        <ele>91.8</ele>
        <time>2022-05-21T12:35:23Z</time>
      </trkpt>
      <trkpt lat="43.25512" lon="2.76902">
        <ele>92.6</ele>
        <time>2022-05-21T12:35:40Z</time>
      </trkpt>
      <trkpt lat="43.25494" lon="2.76876">
        <ele>93.5</ele>
        <time>2022-05-21T12:36:00Z</time>
      </trkpt>
      <trkpt lat="43.25478" lon="2.76877">
        <ele>92.6</ele>
        <time>2022-05-21T12:36:09Z</time>
      </trkpt>
      <trkpt lat="43.25466" lon="2.76877">
        <ele>91.8</ele>
        <time>2022-05-21T12:36:21Z</time>
      </trkpt>
      <trkpt lat="43.25449" lon="2.76872">
        <ele>91.4</ele>
        <time>2022-05-21T12:36:30Z</time>
      </trkpt>
      <trkpt lat="43.25428" lon="2.76845">
        <ele>92.5</ele>
        <time>2022-05-21T12:36:47Z</time>
      </trkpt>
      <trkpt lat="43.25415" lon="2.76823">
        <ele>93.5</ele>
        <time>2022-05-21T12:36:58Z</time>
      </trkpt>
      <trkpt lat="43.25405" lon="2.76806">
        <ele>94.8</ele>
        <time>2022-05-21T12:37:11Z</time>
      </trkpt>
      <trkpt lat="43.25403" lon="2.768">
        <ele>95.4</ele>
        <time>2022-05-21T12:37:45Z</time>
      </trkpt>
      <trkpt lat="43.25396" lon="2.76763">
        <ele>99.1</ele>
        <time>2022-05-21T12:37:58Z</time>
      </trkpt>
      <trkpt lat="43.25373" lon="2.76744">
        <ele>97.9</ele>
        <time>2022-05-21T12:38:09Z</time>
      </trkpt>
      <trkpt lat="43.25345" lon="2.76719">
        <ele>98.7</ele>
        <time>2022-05-21T12:38:20Z</time>
      </trkpt>
      <trkpt lat="43.25334" lon="2.76697">
        <ele>100.7</ele>
        <time>2022-05-21T12:38:33Z</time>
      </trkpt>
      <trkpt lat="43.25332" lon="2.76687">
        <ele>101.4</ele>
        <time>2022-05-21T12:38:53Z</time>
      </trkpt>
      <trkpt lat="43.25321" lon="2.76666">
        <ele>100</ele>
        <time>2022-05-21T12:39:00Z</time>
      </trkpt>
      <trkpt lat="43.25305" lon="2.7662">
        <ele>102.4</ele>
        <time>2022-05-21T12:39:15Z</time>
      </trkpt>
      <trkpt lat="43.25291" lon="2.76587">
        <ele>102.4</ele>
        <time>2022-05-21T12:39:27Z</time>
      </trkpt>
      <trkpt lat="43.25272" lon="2.76557">
        <ele>101.1</ele>
        <time>2022-05-21T12:40:01Z</time>
      </trkpt>
      <trkpt lat="43.25254" lon="2.76548">
        <ele>96.3</ele>
        <time>2022-05-21T12:40:16Z</time>
      </trkpt>
      <trkpt lat="43.25244" lon="2.7654">
        <ele>93.7</ele>
        <time>2022-05-21T12:40:22Z</time>
      </trkpt>
      <trkpt lat="43.25229" lon="2.76518">
        <ele>91.4</ele>
        <time>2022-05-21T12:40:27Z</time>
      </trkpt>
      <trkpt lat="43.25221" lon="2.76496">
        <ele>90.1</ele>
        <time>2022-05-21T12:40:31Z</time>
      </trkpt>
      <trkpt lat="43.25209" lon="2.76461">
        <ele>87.3</ele>
        <time>2022-05-21T12:40:38Z</time>
      </trkpt>
      <trkpt lat="43.25191" lon="2.76431">
        <ele>86.5</ele>
        <time>2022-05-21T12:40:45Z</time>
      </trkpt>
      <trkpt lat="43.25181" lon="2.76408">
        <ele>83.7</ele>
        <time>2022-05-21T12:40:53Z</time>
      </trkpt>
      <trkpt lat="43.25172" lon="2.76375">
        <ele>84.7</ele>
        <time>2022-05-21T12:41:00Z</time>
      </trkpt>
      <trkpt lat="43.25161" lon="2.76341">
        <ele>84.5</ele>
        <time>2022-05-21T12:41:12Z</time>
      </trkpt>
      <trkpt lat="43.25145" lon="2.76312">
        <ele>83.8</ele>
        <time>2022-05-21T12:41:21Z</time>
      </trkpt>
      <trkpt lat="43.25129" lon="2.76268">
        <ele>82.8</ele>
        <time>2022-05-21T12:41:33Z</time>
      </trkpt>
      <trkpt lat="43.25101" lon="2.76202">
        <ele>79.5</ele>
        <time>2022-05-21T12:41:46Z</time>
      </trkpt>
      <trkpt lat="43.25089" lon="2.7618">
        <ele>79</ele>
        <time>2022-05-21T12:41:53Z</time>
      </trkpt>
      <trkpt lat="43.25079" lon="2.76146">
        <ele>77.6</ele>
        <time>2022-05-21T12:42:03Z</time>
      </trkpt>
      <trkpt lat="43.25062" lon="2.7611">
        <ele>76.1</ele>
        <time>2022-05-21T12:42:12Z</time>
      </trkpt>
      <trkpt lat="43.25037" lon="2.76051">
        <ele>73.2</ele>
        <time>2022-05-21T12:42:23Z</time>
      </trkpt>
      <trkpt lat="43.25014" lon="2.76011">
        <ele>68.7</ele>
        <time>2022-05-21T12:42:31Z</time>
      </trkpt>
      <trkpt lat="43.2499" lon="2.75957">
        <ele>67</ele>
        <time>2022-05-21T12:42:44Z</time>
      </trkpt>
      <trkpt lat="43.24977" lon="2.7592">
        <ele>67.9</ele>
        <time>2022-05-21T12:42:52Z</time>
      </trkpt>
      <trkpt lat="43.25002" lon="2.75904">
        <ele>61.1</ele>
        <time>2022-05-21T12:42:59Z</time>
      </trkpt>
      <trkpt lat="43.25016" lon="2.75889">
        <ele>53.9</ele>
        <time>2022-05-21T12:43:11Z</time>
      </trkpt>
      <trkpt lat="43.25031" lon="2.75884">
        <ele>48.2</ele>
        <time>2022-05-21T12:43:17Z</time>
      </trkpt>
      <trkpt lat="43.25046" lon="2.75891">
        <ele>45.1</ele>
        <time>2022-05-21T12:46:08Z</time>
      </trkpt>
      <trkpt lat="43.25058" lon="2.75894">
        <ele>42.7</ele>
        <time>2022-05-21T12:46:26Z</time>
      </trkpt>
      <trkpt lat="43.2508" lon="2.75887">
        <ele>41.2</ele>
        <time>2022-05-21T12:46:39Z</time>
      </trkpt>
      <trkpt lat="43.2511" lon="2.75912">
        <ele>42.9</ele>
        <time>2022-05-21T12:46:52Z</time>
      </trkpt>
      <trkpt lat="43.25141" lon="2.75951">
        <ele>43.9</ele>
        <time>2022-05-21T12:47:12Z</time>
      </trkpt>
      <trkpt lat="43.25162" lon="2.75977">
        <ele>45.7</ele>
        <time>2022-05-21T12:47:27Z</time>
      </trkpt>
      <trkpt lat="43.25181" lon="2.75982">
        <ele>46.7</ele>
        <time>2022-05-21T12:47:42Z</time>
      </trkpt>
      <trkpt lat="43.25184" lon="2.75982">
        <ele>46.9</ele>
        <time>2022-05-21T12:48:08Z</time>
      </trkpt>
      <trkpt lat="43.25193" lon="2.75977">
        <ele>47.8</ele>
        <time>2022-05-21T12:48:20Z</time>
      </trkpt>
      <trkpt lat="43.25199" lon="2.75972">
        <ele>48.1</ele>
        <time>2022-05-21T12:48:30Z</time>
      </trkpt>
      <trkpt lat="43.25212" lon="2.75966">
        <ele>48.9</ele>
        <time>2022-05-21T12:48:42Z</time>
      </trkpt>
      <trkpt lat="43.25228" lon="2.7597">
        <ele>48.7</ele>
        <time>2022-05-21T12:48:48Z</time>
      </trkpt>
      <trkpt lat="43.25246" lon="2.75962">
        <ele>51.3</ele>
        <time>2022-05-21T12:48:58Z</time>
      </trkpt>
      <trkpt lat="43.25261" lon="2.75966">
        <ele>52.7</ele>
        <time>2022-05-21T12:49:07Z</time>
      </trkpt>
      <trkpt lat="43.25269" lon="2.75966">
        <ele>54.3</ele>
        <time>2022-05-21T12:49:14Z</time>
      </trkpt>
      <trkpt lat="43.25277" lon="2.75965">
        <ele>56</ele>
        <time>2022-05-21T12:49:23Z</time>
      </trkpt>
      <trkpt lat="43.25286" lon="2.75958">
        <ele>57</ele>
        <time>2022-05-21T12:49:35Z</time>
      </trkpt>
      <trkpt lat="43.25286" lon="2.75947">
        <ele>58.9</ele>
        <time>2022-05-21T12:49:47Z</time>
      </trkpt>
      <trkpt lat="43.25273" lon="2.75932">
        <ele>60.4</ele>
        <time>2022-05-21T12:49:59Z</time>
      </trkpt>
      <trkpt lat="43.25264" lon="2.75917">
        <ele>61.9</ele>
        <time>2022-05-21T12:50:09Z</time>
      </trkpt>
      <trkpt lat="43.2525" lon="2.75897">
        <ele>63.1</ele>
        <time>2022-05-21T12:50:21Z</time>
      </trkpt>
      <trkpt lat="43.25253" lon="2.75887">
        <ele>63.8</ele>
        <time>2022-05-21T12:50:29Z</time>
      </trkpt>
      <trkpt lat="43.25288" lon="2.75896">
        <ele>63.4</ele>
        <time>2022-05-21T12:50:40Z</time>
      </trkpt>
      <trkpt lat="43.25328" lon="2.75877">
        <ele>64.2</ele>
        <time>2022-05-21T12:50:56Z</time>
      </trkpt>
      <trkpt lat="43.25349" lon="2.75846">
        <ele>65</ele>
        <time>2022-05-21T12:51:08Z</time>
      </trkpt>
      <trkpt lat="43.25369" lon="2.75829">
        <ele>65.8</ele>
        <time>2022-05-21T12:51:17Z</time>
      </trkpt>
      <trkpt lat="43.25398" lon="2.7579">
        <ele>68.8</ele>
        <time>2022-05-21T12:51:33Z</time>
      </trkpt>
      <trkpt lat="43.25423" lon="2.75775">
        <ele>70.7</ele>
        <time>2022-05-21T12:51:46Z</time>
      </trkpt>
      <trkpt lat="43.25446" lon="2.75778">
        <ele>70.2</ele>
        <time>2022-05-21T12:51:55Z</time>
      </trkpt>
      <trkpt lat="43.25468" lon="2.75785">
        <ele>73.6</ele>
        <time>2022-05-21T12:52:07Z</time>
      </trkpt>
      <trkpt lat="43.2549" lon="2.7579">
        <ele>76.5</ele>
        <time>2022-05-21T12:52:18Z</time>
      </trkpt>
      <trkpt lat="43.25511" lon="2.75797">
        <ele>77.8</ele>
        <time>2022-05-21T12:52:31Z</time>
      </trkpt>
      <trkpt lat="43.25528" lon="2.758">
        <ele>78</ele>
        <time>2022-05-21T12:52:42Z</time>
      </trkpt>
      <trkpt lat="43.25547" lon="2.7581">
        <ele>80</ele>
        <time>2022-05-21T12:52:56Z</time>
      </trkpt>
      <trkpt lat="43.25556" lon="2.75805">
        <ele>81.2</ele>
        <time>2022-05-21T12:53:04Z</time>
      </trkpt>
      <trkpt lat="43.25575" lon="2.75809">
        <ele>83.7</ele>
        <time>2022-05-21T12:53:13Z</time>
      </trkpt>
      <trkpt lat="43.25581" lon="2.75797">
        <ele>85.1</ele>
        <time>2022-05-21T12:53:22Z</time>
      </trkpt>
      <trkpt lat="43.25587" lon="2.75785">
        <ele>86.4</ele>
        <time>2022-05-21T12:53:32Z</time>
      </trkpt>
      <trkpt lat="43.25585" lon="2.75767">
        <ele>87.1</ele>
        <time>2022-05-21T12:53:42Z</time>
      </trkpt>
      <trkpt lat="43.25583" lon="2.75757">
        <ele>87.5</ele>
        <time>2022-05-21T12:53:49Z</time>
      </trkpt>
      <trkpt lat="43.25572" lon="2.75725">
        <ele>91.2</ele>
        <time>2022-05-21T12:54:04Z</time>
      </trkpt>
      <trkpt lat="43.25565" lon="2.75703">
        <ele>93.2</ele>
        <time>2022-05-21T12:54:13Z</time>
      </trkpt>
      <trkpt lat="43.2556" lon="2.75689">
        <ele>94.2</ele>
        <time>2022-05-21T12:54:19Z</time>
      </trkpt>
      <trkpt lat="43.25556" lon="2.75669">
        <ele>95</ele>
        <time>2022-05-21T12:54:32Z</time>
      </trkpt>
      <trkpt lat="43.25562" lon="2.7565">
        <ele>96.9</ele>
        <time>2022-05-21T12:54:47Z</time>
      </trkpt>
      <trkpt lat="43.25565" lon="2.75643">
        <ele>97.6</ele>
        <time>2022-05-21T12:54:52Z</time>
      </trkpt>
      <trkpt lat="43.25571" lon="2.75631">
        <ele>99</ele>
        <time>2022-05-21T12:55:01Z</time>
      </trkpt>
      <trkpt lat="43.25576" lon="2.75623">
        <ele>99.9</ele>
        <time>2022-05-21T12:55:07Z</time>
      </trkpt>
      <trkpt lat="43.25585" lon="2.75604">
        <ele>101.9</ele>
        <time>2022-05-21T12:55:20Z</time>
      </trkpt>
      <trkpt lat="43.25588" lon="2.75593">
        <ele>103.3</ele>
        <time>2022-05-21T12:55:28Z</time>
      </trkpt>
      <trkpt lat="43.25597" lon="2.75575">
        <ele>105.4</ele>
        <time>2022-05-21T12:55:42Z</time>
      </trkpt>
      <trkpt lat="43.25609" lon="2.75568">
        <ele>107.4</ele>
        <time>2022-05-21T12:55:54Z</time>
      </trkpt>
      <trkpt lat="43.25618" lon="2.75568">
        <ele>109.2</ele>
        <time>2022-05-21T12:56:01Z</time>
      </trkpt>
      <trkpt lat="43.2563" lon="2.75569">
        <ele>112</ele>
        <time>2022-05-21T12:56:12Z</time>
      </trkpt>
      <trkpt lat="43.25641" lon="2.75564">
        <ele>114.8</ele>
        <time>2022-05-21T12:56:21Z</time>
      </trkpt>
      <trkpt lat="43.25647" lon="2.75567">
        <ele>115.7</ele>
        <time>2022-05-21T12:56:27Z</time>
      </trkpt>
      <trkpt lat="43.25662" lon="2.75576">
        <ele>117.6</ele>
        <time>2022-05-21T12:56:38Z</time>
      </trkpt>
      <trkpt lat="43.25678" lon="2.75589">
        <ele>118.9</ele>
        <time>2022-05-21T12:56:53Z</time>
      </trkpt>
      <trkpt lat="43.25698" lon="2.75588">
        <ele>121.8</ele>
        <time>2022-05-21T12:57:08Z</time>
      </trkpt>
      <trkpt lat="43.25718" lon="2.75586">
        <ele>124.3</ele>
        <time>2022-05-21T12:57:24Z</time>
      </trkpt>
      <trkpt lat="43.25729" lon="2.75586">
        <ele>125.2</ele>
        <time>2022-05-21T12:57:31Z</time>
      </trkpt>
      <trkpt lat="43.25746" lon="2.75584">
        <ele>126.6</ele>
        <time>2022-05-21T12:57:44Z</time>
      </trkpt>
      <trkpt lat="43.25766" lon="2.75583">
        <ele>126.4</ele>
        <time>2022-05-21T12:57:52Z</time>
      </trkpt>
      <trkpt lat="43.25776" lon="2.75541">
        <ele>123</ele>
        <time>2022-05-21T12:57:59Z</time>
      </trkpt>
      <trkpt lat="43.25793" lon="2.75511">
        <ele>122.1</ele>
        <time>2022-05-21T12:58:05Z</time>
      </trkpt>
      <trkpt lat="43.25836" lon="2.75472">
        <ele>122.2</ele>
        <time>2022-05-21T12:58:23Z</time>
      </trkpt>
      <trkpt lat="43.25847" lon="2.75457">
        <ele>117.2</ele>
        <time>2022-05-21T12:58:30Z</time>
      </trkpt>
      <trkpt lat="43.25848" lon="2.75439">
        <ele>113.8</ele>
        <time>2022-05-21T12:58:34Z</time>
      </trkpt>
      <trkpt lat="43.25849" lon="2.75417">
        <ele>109.8</ele>
        <time>2022-05-21T12:58:39Z</time>
      </trkpt>
      <trkpt lat="43.25868" lon="2.75391">
        <ele>105.6</ele>
        <time>2022-05-21T12:58:47Z</time>
      </trkpt>
      <trkpt lat="43.25888" lon="2.75355">
        <ele>100.6</ele>
        <time>2022-05-21T12:58:54Z</time>
      </trkpt>
      <trkpt lat="43.2591" lon="2.75322">
        <ele>94.1</ele>
        <time>2022-05-21T12:59:02Z</time>
      </trkpt>
      <trkpt lat="43.25929" lon="2.75294">
        <ele>92.5</ele>
        <time>2022-05-21T12:59:11Z</time>
      </trkpt>
      <trkpt lat="43.25963" lon="2.75261">
        <ele>92.3</ele>
        <time>2022-05-21T12:59:25Z</time>
      </trkpt>
      <trkpt lat="43.25974" lon="2.75228">
        <ele>86.2</ele>
        <time>2022-05-21T12:59:36Z</time>
      </trkpt>
      <trkpt lat="43.25985" lon="2.75212">
        <ele>82.1</ele>
        <time>2022-05-21T12:59:41Z</time>
      </trkpt>
      <trkpt lat="43.25994" lon="2.75179">
        <ele>76.5</ele>
        <time>2022-05-21T12:59:51Z</time>
      </trkpt>
      <trkpt lat="43.26017" lon="2.75157">
        <ele>70.9</ele>
        <time>2022-05-21T12:59:58Z</time>
      </trkpt>
      <trkpt lat="43.26037" lon="2.75156">
        <ele>68.1</ele>
        <time>2022-05-21T13:00:02Z</time>
      </trkpt>
      <trkpt lat="43.26044" lon="2.7513">
        <ele>63.6</ele>
        <time>2022-05-21T13:00:07Z</time>
      </trkpt>
      <trkpt lat="43.26049" lon="2.75129">
        <ele>63.1</ele>
        <time>2022-05-21T13:00:11Z</time>
      </trkpt>
      <trkpt lat="43.26059" lon="2.7514">
        <ele>62.6</ele>
        <time>2022-05-21T13:00:32Z</time>
      </trkpt>
      <trkpt lat="43.26069" lon="2.75089">
        <ele>57.2</ele>
        <time>2022-05-21T13:00:43Z</time>
      </trkpt>
      <trkpt lat="43.26072" lon="2.75082">
        <ele>56</ele>
        <time>2022-05-21T13:00:47Z</time>
      </trkpt>
      <trkpt lat="43.2608" lon="2.75075">
        <ele>53.8</ele>
        <time>2022-05-21T13:00:52Z</time>
      </trkpt>
      <trkpt lat="43.26075" lon="2.75057">
        <ele>50.6</ele>
        <time>2022-05-21T13:00:57Z</time>
      </trkpt>
      <trkpt lat="43.26084" lon="2.75047">
        <ele>48</ele>
        <time>2022-05-21T13:01:03Z</time>
      </trkpt>
      <trkpt lat="43.26082" lon="2.75025">
        <ele>43.7</ele>
        <time>2022-05-21T13:01:08Z</time>
      </trkpt>
      <trkpt lat="43.26085" lon="2.75001">
        <ele>41.1</ele>
        <time>2022-05-21T13:01:13Z</time>
      </trkpt>
      <trkpt lat="43.26115" lon="2.7499">
        <ele>40.4</ele>
        <time>2022-05-21T13:01:23Z</time>
      </trkpt>
      <trkpt lat="43.26163" lon="2.74962">
        <ele>40.2</ele>
        <time>2022-05-21T13:01:43Z</time>
      </trkpt>
      <trkpt lat="43.26233" lon="2.74882">
        <ele>40.1</ele>
        <time>2022-05-21T13:02:13Z</time>
      </trkpt>
      <trkpt lat="43.26264" lon="2.74822">
        <ele>39.6</ele>
        <time>2022-05-21T13:02:26Z</time>
      </trkpt>
      <trkpt lat="43.26292" lon="2.74768">
        <ele>39.7</ele>
        <time>2022-05-21T13:02:38Z</time>
      </trkpt>
      <trkpt lat="43.2636" lon="2.74643">
        <ele>40</ele>
        <time>2022-05-21T13:03:04Z</time>
      </trkpt>
      <trkpt lat="43.26454" lon="2.74477">
        <ele>39.6</ele>
        <time>2022-05-21T13:03:39Z</time>
      </trkpt>
    </trkseg>
  </trk>
</gpx>